Time;durP1;ratioP1;P1;durP2;ratioP2;P2;SDS_P1;SDS_P2;PMS_P1;PMS_P2;Temp;Humidity;BMP_temperature;BMP_pressure;BME280_temperature;BME280_humidity;BME280_pressure;Samples;Min_cycle;Max_cycle;Signal;HPM_P1;HPM_P2
2021/11/27 00:00:18;;;;;;;10.60;7.93;;;;;;;;;;5055576;28;20064;-69
2021/11/27 00:02:44;;;;;;;14.02;9.02;;;;;;;;;;5055472;28;20033;-70
2021/11/27 00:05:10;;;;;;;12.75;9.02;;;;;;;;;;5055173;28;20129;-69
2021/11/27 00:07:35;;;;;;;14.32;9.40;;;;;;;;;;5055193;28;20496;-69
2021/11/27 00:10:01;;;;;;;14.40;9.18;;;;;;;;;;5037528;28;20036;-69
2021/11/27 00:12:27;;;;;;;12.82;9.13;;;;;;;;;;5036728;28;20432;-71
2021/11/27 00:14:52;;;;;;;12.10;8.20;;;;;;;;;;5037580;28;20068;-70
2021/11/27 00:17:18;;;;;;;12.85;8.65;;;;;;;;;;5054976;28;20033;-71
2021/11/27 00:19:43;;;;;;;12.05;8.23;;;;;;;;;;5055126;28;20048;-71
2021/11/27 00:22:09;;;;;;;12.20;7.55;;;;;;;;;;5054531;28;20116;-71
2021/11/27 00:24:35;;;;;;;13.07;8.18;;;;;;;;;;5055382;28;20025;-71
2021/11/27 00:27:00;;;;;;;9.93;7.47;;;;;;;;;;5055008;28;20067;-70
2021/11/27 00:29:26;;;;;;;8.18;6.47;;;;;;;;;;5054941;28;20079;-71
2021/11/27 00:31:52;;;;;;;11.40;6.70;;;;;;;;;;5054708;28;20029;-70
2021/11/27 00:34:17;;;;;;;10.75;7.05;;;;;;;;;;5036980;28;20125;-76
2021/11/27 00:36:45;;;;;;;10.70;6.38;;;;;;;;;;5020103;28;20369;-76
2021/11/27 00:39:11;;;;;;;7.93;6.25;;;;;;;;;;5054682;28;20564;-76
2021/11/27 00:41:37;;;;;;;8.82;6.30;;;;;;;;;;5036873;28;20551;-73
2021/11/27 00:44:03;;;;;;;9.35;7.50;;;;;;;;;;5036675;28;20045;-72
2021/11/27 00:46:28;;;;;;;8.50;6.75;;;;;;;;;;5036769;28;20112;-71
2021/11/27 00:48:54;;;;;;;8.57;6.45;;;;;;;;;;5036632;28;20620;-73
2021/11/27 00:51:21;;;;;;;9.25;6.30;;;;;;;;;;5054538;28;20535;-73
2021/11/27 00:53:47;;;;;;;7.88;5.95;;;;;;;;;;5054272;28;20112;-73
2021/11/27 00:56:14;;;;;;;8.95;6.57;;;;;;;;;;5036462;28;20421;-73
2021/11/27 00:58:40;;;;;;;9.32;6.72;;;;;;;;;;5036339;28;20040;-75
2021/11/27 01:01:09;;;;;;;7.90;6.63;;;;;;;;;;5053423;28;20040;-75
2021/11/27 01:03:37;;;;;;;6.72;5.75;;;;;;;;;;5054349;28;20067;-76
2021/11/27 01:06:05;;;;;;;7.68;5.63;;;;;;;;;;5036375;28;20120;-74
2021/11/27 01:08:31;;;;;;;8.20;6.40;;;;;;;;;;5054062;28;20369;-74
2021/11/27 01:10:58;;;;;;;7.85;5.53;;;;;;;;;;5054150;28;20520;-74
2021/11/27 01:13:25;;;;;;;7.15;5.72;;;;;;;;;;5035520;28;20041;-73
2021/11/27 01:15:51;;;;;;;7.05;6.00;;;;;;;;;;5019542;28;20405;-75
2021/11/27 01:18:17;;;;;;;6.40;5.45;;;;;;;;;;5035717;28;20508;-75
2021/11/27 01:20:45;;;;;;;7.60;5.35;;;;;;;;;;5035914;28;20099;-71
2021/11/27 01:23:10;;;;;;;6.28;5.53;;;;;;;;;;5035936;28;20044;-70
2021/11/27 01:25:36;;;;;;;6.78;5.95;;;;;;;;;;5035562;28;20036;-70
2021/11/27 01:28:02;;;;;;;6.53;4.90;;;;;;;;;;5035816;28;20485;-71
2021/11/27 01:30:29;;;;;;;5.47;4.18;;;;;;;;;;5035742;28;20075;-71
2021/11/27 01:32:55;;;;;;;7.78;5.32;;;;;;;;;;5035491;28;20037;-71
2021/11/27 01:35:21;;;;;;;6.20;5.22;;;;;;;;;;5035695;28;20448;-71
2021/11/27 01:37:47;;;;;;;8.25;6.05;;;;;;;;;;5035603;28;20123;-71
2021/11/27 01:40:15;;;;;;;7.07;6.38;;;;;;;;;;5035568;28;20111;-71
2021/11/27 01:42:40;;;;;;;5.88;5.30;;;;;;;;;;5035753;28;20133;-71
2021/11/27 01:45:07;;;;;;;7.30;5.90;;;;;;;;;;5036062;28;20123;-70
2021/11/27 01:47:33;;;;;;;6.35;5.72;;;;;;;;;;5035766;28;20033;-70
2021/11/27 01:49:58;;;;;;;7.18;5.70;;;;;;;;;;5019201;28;20087;-70
2021/11/27 01:52:24;;;;;;;8.50;5.90;;;;;;;;;;5018969;28;20037;-70
2021/11/27 01:54:50;;;;;;;4.97;4.35;;;;;;;;;;5035658;28;20428;-71
2021/11/27 01:57:16;;;;;;;6.38;5.03;;;;;;;;;;5053397;28;20091;-70
2021/11/27 01:59:42;;;;;;;6.25;5.47;;;;;;;;;;5035402;28;20029;-70
2021/11/27 02:02:10;;;;;;;5.43;4.93;;;;;;;;;;5035317;28;20040;-70
2021/11/27 02:04:36;;;;;;;7.32;5.38;;;;;;;;;;5035545;28;20036;-70
2021/11/27 02:07:03;;;;;;;6.93;5.65;;;;;;;;;;5035127;28;20420;-70
2021/11/27 02:09:31;;;;;;;5.22;4.72;;;;;;;;;;5034279;28;20028;-70
2021/11/27 02:11:58;;;;;;;6.22;5.15;;;;;;;;;;5034135;28;20047;-70
2021/11/27 02:14:24;;;;;;;6.18;5.45;;;;;;;;;;5035543;28;20124;-70
2021/11/27 02:17:01;;;;;;;5.97;5.00;;;;;;;;;;5035297;28;20485;-70
2021/11/27 02:19:28;;;;;;;7.78;6.20;;;;;;;;;;5035169;28;20033;-70
2021/11/27 02:21:54;;;;;;;6.85;5.13;;;;;;;;;;5052821;28;20547;-70
2021/11/27 02:24:21;;;;;;;6.93;5.72;;;;;;;;;;5035088;28;20551;-70
2021/11/27 02:26:47;;;;;;;6.70;6.00;;;;;;;;;;5052799;28;20045;-70
2021/11/27 02:29:14;;;;;;;6.85;5.72;;;;;;;;;;5035039;28;20029;-74
2021/11/27 02:31:41;;;;;;;7.13;5.55;;;;;;;;;;5035008;28;20132;-74
2021/11/27 02:34:07;;;;;;;6.32;5.65;;;;;;;;;;5034921;28;20041;-74
2021/11/27 02:36:33;;;;;;;6.10;5.55;;;;;;;;;;5034856;28;20029;-74
2021/11/27 02:38:59;;;;;;;7.47;6.32;;;;;;;;;;5034844;28;20140;-74
2021/11/27 02:41:25;;;;;;;6.85;6.22;;;;;;;;;;5034848;28;20029;-75
2021/11/27 02:43:51;;;;;;;6.65;5.97;;;;;;;;;;5035009;28;20040;-75
2021/11/27 02:46:16;;;;;;;8.80;7.15;;;;;;;;;;5052837;28;20033;-75
2021/11/27 02:48:42;;;;;;;7.88;5.93;;;;;;;;;;5035118;28;20065;-75
2021/11/27 02:51:08;;;;;;;8.07;6.82;;;;;;;;;;5034913;28;20032;-75
2021/11/27 02:53:35;;;;;;;8.95;7.50;;;;;;;;;;5035115;28;20033;-75
2021/11/27 02:56:02;;;;;;;7.00;5.82;;;;;;;;;;5018630;28;20040;-75
2021/11/27 02:58:28;;;;;;;5.70;4.63;;;;;;;;;;5034634;28;20033;-74
2021/11/27 03:00:54;;;;;;;6.65;5.25;;;;;;;;;;5052505;28;20069;-74
2021/11/27 03:03:22;;;;;;;7.78;6.03;;;;;;;;;;5034722;28;20071;-74
2021/11/27 03:05:49;;;;;;;8.00;6.55;;;;;;;;;;5068273;28;20065;-72
2021/11/27 03:08:14;;;;;;;7.15;6.45;;;;;;;;;;5052372;28;20037;-72
2021/11/27 03:10:40;;;;;;;9.95;6.95;;;;;;;;;;5034501;28;20030;-72
2021/11/27 03:13:05;;;;;;;7.43;6.10;;;;;;;;;;5034025;28;20044;-73
2021/11/27 03:15:33;;;;;;;7.30;5.82;;;;;;;;;;5034812;28;20041;-71
2021/11/27 03:17:58;;;;;;;8.50;6.93;;;;;;;;;;5034659;28;20397;-71
2021/11/27 03:20:24;;;;;;;8.95;7.20;;;;;;;;;;5053856;28;20029;-71
2021/11/27 03:22:50;;;;;;;9.65;7.65;;;;;;;;;;5038171;28;20083;-71
2021/11/27 03:25:15;;;;;;;8.98;6.75;;;;;;;;;;5038357;28;20032;-71
2021/11/27 03:27:44;;;;;;;9.15;7.00;;;;;;;;;;5038647;28;20040;-73
2021/11/27 03:30:13;;;;;;;10.93;7.10;;;;;;;;;;5021608;28;20029;-70
2021/11/27 03:32:39;;;;;;;13.60;9.00;;;;;;;;;;5021565;28;20033;-70
2021/11/27 03:35:09;;;;;;;12.63;8.27;;;;;;;;;;5037762;28;20021;-70
2021/11/27 03:37:46;;;;;;;15.32;10.68;;;;;;;;;;5037775;28;20400;-70
2021/11/27 03:40:15;;;;;;;12.45;8.68;;;;;;;;;;5055730;28;20116;-70
2021/11/27 03:42:41;;;;;;;17.45;11.82;;;;;;;;;;5037815;28;20035;-70
2021/11/27 03:45:09;;;;;;;15.30;10.48;;;;;;;;;;5037663;28;20037;-71
2021/11/27 03:47:35;;;;;;;17.83;10.88;;;;;;;;;;5037982;28;20044;-71
2021/11/27 03:50:01;;;;;;;18.95;11.55;;;;;;;;;;5033259;28;20033;-72
2021/11/27 03:52:27;;;;;;;16.55;11.52;;;;;;;;;;5021596;28;20029;-71
2021/11/27 03:54:52;;;;;;;20.20;13.70;;;;;;;;;;5037983;28;20041;-70
2021/11/27 03:57:18;;;;;;;23.30;15.00;;;;;;;;;;5037587;28;20487;-70
2021/11/27 03:59:44;;;;;;;23.85;15.50;;;;;;;;;;5037644;28;20558;-72
2021/11/27 04:02:10;;;;;;;22.60;14.50;;;;;;;;;;5037162;28;20025;-72
2021/11/27 04:04:38;;;;;;;24.17;15.10;;;;;;;;;;5055774;28;20041;-72
2021/11/27 04:07:05;;;;;;;22.63;14.95;;;;;;;;;;5037559;28;20025;-71
2021/11/27 04:09:32;;;;;;;21.98;13.88;;;;;;;;;;5037202;28;20048;-71
2021/11/27 04:11:58;;;;;;;22.05;13.68;;;;;;;;;;5036732;28;20456;-70
2021/11/27 04:14:38;;;;;;;23.05;14.30;;;;;;;;;;5037797;28;20128;-71
2021/11/27 04:17:04;;;;;;;23.35;14.55;;;;;;;;;;5055073;28;20131;-71
2021/11/27 04:19:30;;;;;;;20.15;13.88;;;;;;;;;;5037375;28;20036;-71
2021/11/27 04:21:56;;;;;;;23.38;14.93;;;;;;;;;;5037007;28;20044;-71
2021/11/27 04:24:22;;;;;;;18.27;13.07;;;;;;;;;;5021004;28;20377;-71
2021/11/27 04:26:47;;;;;;;21.77;13.15;;;;;;;;;;5036908;28;20068;-68
2021/11/27 04:29:15;;;;;;;22.02;13.73;;;;;;;;;;5037364;28;20100;-68
2021/11/27 04:31:41;;;;;;;22.70;13.45;;;;;;;;;;5036373;28;20128;-68
2021/11/27 04:34:07;;;;;;;21.13;11.57;;;;;;;;;;5037176;28;20456;-70
2021/11/27 04:36:33;;;;;;;18.17;11.63;;;;;;;;;;5055026;28;20037;-71
2021/11/27 04:38:59;;;;;;;21.98;13.27;;;;;;;;;;5036692;28;20037;-72
2021/11/27 04:41:26;;;;;;;19.13;10.82;;;;;;;;;;5036876;28;20484;-69
2021/11/27 04:43:53;;;;;;;27.50;15.80;;;;;;;;;;5020432;28;20029;-68
2021/11/27 04:46:18;;;;;;;20.40;12.38;;;;;;;;;;5036646;28;20144;-68
2021/11/27 04:48:44;;;;;;;30.13;14.13;;;;;;;;;;5036835;28;20021;-70
2021/11/27 04:51:13;;;;;;;25.88;14.38;;;;;;;;;;5036717;28;20028;-70
2021/11/27 04:53:39;;;;;;;32.83;16.58;;;;;;;;;;5054492;28;20064;-73
2021/11/27 04:56:04;;;;;;;31.65;16.88;;;;;;;;;;5036510;28;20075;-71
2021/11/27 04:58:30;;;;;;;29.67;15.45;;;;;;;;;;5036752;28;20029;-70
2021/11/27 05:01:00;;;;;;;29.60;14.98;;;;;;;;;;5020603;28;20076;-71
2021/11/27 05:03:46;;;;;;;26.77;14.38;;;;;;;;;;5036764;28;20064;-73
2021/11/27 05:06:11;;;;;;;26.48;14.88;;;;;;;;;;5036042;28;20060;-73
2021/11/27 05:08:38;;;;;;;29.35;15.43;;;;;;;;;;5036269;28;20029;-75
2021/11/27 05:11:04;;;;;;;25.00;14.32;;;;;;;;;;5054334;28;20493;-76
2021/11/27 05:13:30;;;;;;;23.85;12.75;;;;;;;;;;5035788;28;20045;-75
2021/11/27 05:15:56;;;;;;;24.65;14.10;;;;;;;;;;5036140;28;20055;-75
2021/11/27 05:18:21;;;;;;;23.25;13.07;;;;;;;;;;5035985;28;20036;-76
2021/11/27 05:21:10;;;;;;;24.25;14.57;;;;;;;;;;5042855;28;20040;-76
2021/11/27 05:23:37;;;;;;;23.98;13.75;;;;;;;;;;5019899;28;20048;-73
2021/11/27 05:26:23;;;;;;;20.92;14.05;;;;;;;;;;5012682;28;20033;-74
2021/11/27 05:29:07;;;;;;;21.20;13.15;;;;;;;;;;5054121;28;20102;-74
2021/11/27 05:32:22;;;;;;;19.10;12.55;;;;;;;;;;5037422;28;20124;-74
2021/11/27 05:34:51;;;;;;;23.20;13.88;;;;;;;;;;5035960;28;20136;-72
2021/11/27 05:37:17;;;;;;;19.92;11.93;;;;;;;;;;5053372;28;20040;-72
2021/11/27 05:39:45;;;;;;;20.95;13.07;;;;;;;;;;5053355;28;20040;-72
2021/11/27 05:42:11;;;;;;;20.38;12.30;;;;;;;;;;5053470;28;20036;-71
2021/11/27 05:44:44;;;;;;;23.10;13.30;;;;;;;;;;5035737;28;20033;-70
2021/11/27 05:47:09;;;;;;;19.95;12.32;;;;;;;;;;5034711;28;20481;-71
2021/11/27 05:49:35;;;;;;;21.20;13.70;;;;;;;;;;5018798;28;20067;-71
2021/11/27 05:52:13;;;;;;;20.35;12.90;;;;;;;;;;5035788;28;20033;-71
2021/11/27 05:54:38;;;;;;;21.15;12.80;;;;;;;;;;5052754;28;20488;-71
2021/11/27 05:57:04;;;;;;;22.25;13.48;;;;;;;;;;5052415;28;20397;-71
2021/11/27 05:59:30;;;;;;;22.13;13.00;;;;;;;;;;5052790;28;20037;-71
2021/11/27 06:01:56;;;;;;;23.17;13.85;;;;;;;;;;5052542;28;20032;-71
2021/11/27 06:04:22;;;;;;;22.42;14.00;;;;;;;;;;5052205;28;20048;-71
2021/11/27 06:06:48;;;;;;;18.35;12.38;;;;;;;;;;5052498;28;20095;-71
2021/11/27 06:09:14;;;;;;;21.30;13.57;;;;;;;;;;5052847;28;20029;-70
2021/11/27 06:11:39;;;;;;;17.67;11.70;;;;;;;;;;5052350;28;20119;-75
2021/11/27 06:14:05;;;;;;;18.05;12.07;;;;;;;;;;5052898;28;20056;-74
2021/11/27 06:16:30;;;;;;;19.70;12.38;;;;;;;;;;5052527;28;20025;-71
2021/11/27 06:18:56;;;;;;;20.80;13.35;;;;;;;;;;5052505;28;20045;-71
2021/11/27 06:21:22;;;;;;;21.10;13.15;;;;;;;;;;5052270;28;20033;-71
2021/11/27 06:23:49;;;;;;;18.80;12.20;;;;;;;;;;5051782;28;20127;-71
2021/11/27 06:26:14;;;;;;;19.48;12.80;;;;;;;;;;5051865;28;20566;-69
2021/11/27 06:28:39;;;;;;;18.15;12.70;;;;;;;;;;5052309;28;20060;-69
2021/11/27 06:31:05;;;;;;;18.65;12.20;;;;;;;;;;5052990;28;20021;-68
2021/11/27 06:33:31;;;;;;;16.85;11.38;;;;;;;;;;5035096;28;20057;-68
2021/11/27 06:35:58;;;;;;;19.60;12.60;;;;;;;;;;5052837;28;20032;-69
2021/11/27 06:38:23;;;;;;;19.65;12.30;;;;;;;;;;5052849;28;20106;-68
2021/11/27 06:40:49;;;;;;;18.80;12.35;;;;;;;;;;5053110;28;20466;-68
2021/11/27 06:43:33;;;;;;;17.77;11.80;;;;;;;;;;5052570;28;20040;-68
2021/11/27 06:46:15;;;;;;;18.45;11.75;;;;;;;;;;5034811;28;20045;-69
2021/11/27 06:48:40;;;;;;;16.10;11.02;;;;;;;;;;5052801;28;20074;-69
2021/11/27 06:51:08;;;;;;;14.48;10.15;;;;;;;;;;5035189;28;20029;-71
2021/11/27 06:53:33;;;;;;;16.48;11.27;;;;;;;;;;5052956;28;20032;-71
2021/11/27 06:56:00;;;;;;;16.52;10.57;;;;;;;;;;5055199;28;20036;-72
2021/11/27 06:58:28;;;;;;;17.27;10.75;;;;;;;;;;5039149;28;20041;-72
2021/11/27 07:01:17;;;;;;;16.33;11.68;;;;;;;;;;5039103;28;20107;-72
2021/11/27 07:03:49;;;;;;;16.92;11.20;;;;;;;;;;5056620;28;20051;-74
2021/11/27 07:06:33;;;;;;;9.93;7.50;;;;;;;;;;5056805;28;20052;-74
2021/11/27 07:08:59;;;;;;;15.82;10.80;;;;;;;;;;5038332;28;20029;-74
2021/11/27 07:11:44;;;;;;;11.05;7.07;;;;;;;;;;5056920;28;20036;-75
2021/11/27 07:14:10;;;;;;;17.70;11.68;;;;;;;;;;5038722;28;20048;-74
2021/11/27 07:16:36;;;;;;;14.15;10.20;;;;;;;;;;5056257;28;20037;-74
2021/11/27 07:19:03;;;;;;;17.65;10.80;;;;;;;;;;5038722;28;20033;-74
2021/11/27 07:21:29;;;;;;;13.70;10.57;;;;;;;;;;5055974;28;20035;-74
2021/11/27 07:23:54;;;;;;;14.55;10.00;;;;;;;;;;5038250;28;20052;-74
2021/11/27 07:26:20;;;;;;;16.80;10.73;;;;;;;;;;5055850;28;20472;-74
2021/11/27 07:28:52;;;;;;;12.93;10.48;;;;;;;;;;5038104;28;20587;-74
2021/11/27 07:31:18;;;;;;;16.35;11.15;;;;;;;;;;5055929;28;20116;-74
2021/11/27 07:33:45;;;;;;;15.60;11.18;;;;;;;;;;5055988;28;20080;-74
2021/11/27 07:36:10;;;;;;;14.73;11.27;;;;;;;;;;5055564;28;20037;-74
2021/11/27 07:38:36;;;;;;;16.85;11.55;;;;;;;;;;5055032;28;20071;-74
2021/11/27 07:41:03;;;;;;;15.50;11.13;;;;;;;;;;5037810;28;20125;-74
2021/11/27 07:43:29;;;;;;;17.27;10.25;;;;;;;;;;5055553;28;20068;-74
2021/11/27 07:46:07;;;;;;;14.73;10.68;;;;;;;;;;5037855;28;20546;-74
2021/11/27 07:48:51;;;;;;;16.25;10.88;;;;;;;;;;5055812;28;20051;-75
2021/11/27 07:51:35;;;;;;;15.82;11.25;;;;;;;;;;5056211;28;20055;-75
2021/11/27 07:54:03;;;;;;;14.85;11.40;;;;;;;;;;5038002;28;20047;-75
2021/11/27 07:56:28;;;;;;;14.68;10.13;;;;;;;;;;5037971;28;20457;-75
2021/11/27 07:58:54;;;;;;;14.60;10.75;;;;;;;;;;5037142;28;20079;-75
2021/11/27 08:01:19;;;;;;;14.63;11.35;;;;;;;;;;5055655;28;20120;-75
2021/11/27 08:03:46;;;;;;;17.65;12.13;;;;;;;;;;5055442;28;20029;-75
2021/11/27 08:06:11;;;;;;;15.32;10.80;;;;;;;;;;5054651;28;20029;-75
2021/11/27 08:08:37;;;;;;;16.05;11.32;;;;;;;;;;5055078;28;20071;-77
2021/11/27 08:11:04;;;;;;;18.20;12.13;;;;;;;;;;5055343;28;20041;-77
2021/11/27 08:13:32;;;;;;;18.77;12.82;;;;;;;;;;5054927;28;20052;-77
2021/11/27 08:15:58;;;;;;;15.02;10.80;;;;;;;;;;5055878;28;20131;-77
2021/11/27 08:18:24;;;;;;;20.88;13.32;;;;;;;;;;5055397;28;20072;-72
2021/11/27 08:20:50;;;;;;;17.88;11.93;;;;;;;;;;5055071;28;20155;-79
2021/11/27 08:23:19;;;;;;;15.57;11.35;;;;;;;;;;5055611;28;20033;-79
2021/11/27 08:25:47;;;;;;;14.18;10.52;;;;;;;;;;5055185;28;20040;-78
2021/11/27 08:28:13;;;;;;;15.63;10.80;;;;;;;;;;5055153;28;20052;-79
2021/11/27 08:30:39;;;;;;;18.33;11.52;;;;;;;;;;5055233;28;20024;-78
2021/11/27 08:33:05;;;;;;;17.02;10.82;;;;;;;;;;5054926;28;20063;-78
2021/11/27 08:35:31;;;;;;;19.63;12.52;;;;;;;;;;5055202;28;20116;-78
2021/11/27 08:37:57;;;;;;;19.98;11.75;;;;;;;;;;5054759;28;20163;-78
2021/11/27 08:40:24;;;;;;;17.55;11.75;;;;;;;;;;5054745;28;20033;-78
2021/11/27 08:42:50;;;;;;;14.75;9.77;;;;;;;;;;5054807;28;20044;-78
2021/11/27 08:45:16;;;;;;;14.65;11.15;;;;;;;;;;5054729;28;20029;-78
2021/11/27 08:47:43;;;;;;;15.10;10.73;;;;;;;;;;5054747;28;20524;-78
2021/11/27 08:50:10;;;;;;;17.08;10.85;;;;;;;;;;5054488;28;20121;-78
2021/11/27 08:52:36;;;;;;;14.73;11.00;;;;;;;;;;5054680;28;20385;-78
2021/11/27 08:55:02;;;;;;;15.43;10.73;;;;;;;;;;5054478;28;20029;-78
2021/11/27 08:57:29;;;;;;;16.98;11.23;;;;;;;;;;5054714;28;20120;-78
2021/11/27 08:59:54;;;;;;;16.13;9.75;;;;;;;;;;5054521;28;20435;-78
2021/11/27 09:02:20;;;;;;;17.17;10.63;;;;;;;;;;5054638;28;20037;-78
2021/11/27 09:04:45;;;;;;;16.63;11.00;;;;;;;;;;5036710;28;20035;-78
2021/11/27 09:07:11;;;;;;;16.92;11.60;;;;;;;;;;5054450;28;20094;-78
2021/11/27 09:09:38;;;;;;;16.30;11.73;;;;;;;;;;5054293;28;20043;-78
2021/11/27 09:12:05;;;;;;;16.40;11.07;;;;;;;;;;5036514;28;20029;-78
2021/11/27 09:14:31;;;;;;;16.83;11.70;;;;;;;;;;5036617;28;20051;-78
2021/11/27 09:16:56;;;;;;;17.65;11.45;;;;;;;;;;5036287;28;20404;-78
2021/11/27 09:19:23;;;;;;;15.82;11.55;;;;;;;;;;5053781;28;20029;-78
2021/11/27 09:21:50;;;;;;;16.27;11.27;;;;;;;;;;5054445;28;20507;-78
2021/11/27 09:24:17;;;;;;;17.20;11.90;;;;;;;;;;5053872;28;20127;-78
2021/11/27 09:26:43;;;;;;;15.73;10.70;;;;;;;;;;5053592;28;20041;-76
2021/11/27 09:29:09;;;;;;;15.77;10.75;;;;;;;;;;5053799;28;20082;-76
2021/11/27 09:31:39;;;;;;;16.27;11.13;;;;;;;;;;5053637;28;20059;-75
2021/11/27 09:34:08;;;;;;;17.50;11.90;;;;;;;;;;5035679;28;20041;-76
2021/11/27 09:36:34;;;;;;;17.92;12.10;;;;;;;;;;5052596;28;20372;-76
2021/11/27 09:39:00;;;;;;;16.70;11.35;;;;;;;;;;5053406;28;20032;-76
2021/11/27 09:41:29;;;;;;;17.33;11.32;;;;;;;;;;5053756;28;20412;-75
2021/11/27 09:43:57;;;;;;;16.20;10.05;;;;;;;;;;5035795;28;20037;-75
2021/11/27 09:46:26;;;;;;;17.10;11.18;;;;;;;;;;5053572;28;20452;-76
2021/11/27 09:48:54;;;;;;;15.00;10.05;;;;;;;;;;5053597;28;20037;-75
2021/11/27 09:51:21;;;;;;;16.70;11.85;;;;;;;;;;5054050;28;20033;-75
2021/11/27 09:53:48;;;;;;;17.27;12.50;;;;;;;;;;5053811;28;20041;-75
2021/11/27 09:56:15;;;;;;;16.23;11.38;;;;;;;;;;5053810;28;20079;-76
2021/11/27 09:58:41;;;;;;;16.45;11.18;;;;;;;;;;5053665;28;20107;-76
2021/11/27 10:01:07;;;;;;;17.67;12.10;;;;;;;;;;5035498;28;20025;-76
2021/11/27 10:03:34;;;;;;;15.20;10.30;;;;;;;;;;5053125;28;20047;-68
2021/11/27 10:06:03;;;;;;;15.07;9.85;;;;;;;;;;5053133;28;20029;-79
2021/11/27 10:11:26;;;;;;;16.63;9.80;;;;;;;;;;5053365;28;20147;-80
2021/11/27 10:13:52;;;;;;;15.75;9.90;;;;;;;;;;5053068;28;20052;-79
2021/11/27 10:16:18;;;;;;;15.75;10.50;;;;;;;;;;5035234;28;20133;-74
2021/11/27 10:19:01;;;;;;;12.75;8.75;;;;;;;;;;5052997;28;20120;-79
2021/11/27 10:21:26;;;;;;;14.10;9.75;;;;;;;;;;5052908;28;20044;-79
2021/11/27 10:23:51;;;;;;;12.13;9.10;;;;;;;;;;5052809;28;20021;-79
2021/11/27 10:26:32;;;;;;;14.75;8.60;;;;;;;;;;5052906;28;20052;-79
2021/11/27 10:28:58;;;;;;;;;;;;;;;;;;5053288;28;20041;-78
2021/11/27 10:31:30;;;;;;;9.27;5.60;;;;;;;;;;5055886;28;19905;-79
2021/11/27 10:33:59;;;;;;;14.73;9.07;;;;;;;;;;5022620;28;20489;-78
2021/11/27 10:36:30;;;;;;;11.30;8.13;;;;;;;;;;5056910;28;20056;-79
2021/11/27 10:39:02;;;;;;;12.73;8.68;;;;;;;;;;5056750;28;20124;-78
2021/11/27 10:41:34;;;;;;;15.18;9.80;;;;;;;;;;5039087;28;20116;-78
2021/11/27 10:44:00;;;;;;;20.90;12.93;;;;;;;;;;5056435;28;20044;-79
2021/11/27 10:46:30;;;;;;;16.48;10.40;;;;;;;;;;5056735;28;20397;-78
2021/11/27 10:48:56;;;;;;;14.70;10.10;;;;;;;;;;5056753;28;20029;-78
2021/11/27 10:51:22;;;;;;;16.25;10.07;;;;;;;;;;5038821;28;20461;-78
2021/11/27 10:53:59;;;;;;;16.50;11.27;;;;;;;;;;5056414;28;20037;-78
2021/11/27 10:56:44;;;;;;;17.90;10.05;;;;;;;;;;5056499;28;20443;-78
2021/11/27 10:59:12;;;;;;;17.10;11.10;;;;;;;;;;5056736;28;20037;-76
2021/11/27 11:02:11;;;;;;;16.73;11.30;;;;;;;;;;5056393;28;20044;-76
2021/11/27 11:04:41;;;;;;;18.92;11.07;;;;;;;;;;5027960;28;20041;-76
2021/11/27 11:07:16;;;;;;;15.55;9.80;;;;;;;;;;5056481;28;20132;-77
2021/11/27 11:10:01;;;;;;;11.48;8.50;;;;;;;;;;5056907;28;20041;-76
2021/11/27 11:12:34;;;;;;;13.77;8.88;;;;;;;;;;5038168;28;20496;-76
2021/11/27 11:15:31;;;;;;;13.48;8.73;;;;;;;;;;5056826;28;20041;-76
2021/11/27 11:18:16;;;;;;;17.83;10.55;;;;;;;;;;5034564;28;20096;-76
2021/11/27 11:20:43;;;;;;;10.85;7.22;;;;;;;;;;5056344;28;20033;-76
2021/11/27 11:23:08;;;;;;;11.55;8.32;;;;;;;;;;5056123;28;20439;-76
2021/11/27 11:25:36;;;;;;;12.68;8.00;;;;;;;;;;5038376;28;20045;-77
2021/11/27 11:28:14;;;;;;;11.25;6.90;;;;;;;;;;5038176;28;20388;-77
2021/11/27 11:31:00;;;;;;;9.85;7.15;;;;;;;;;;5055832;28;20037;-77
2021/11/27 11:33:26;;;;;;;8.43;6.30;;;;;;;;;;5055967;28;20036;-77
2021/11/27 11:35:54;;;;;;;14.70;7.28;;;;;;;;;;5038148;28;20369;-77
2021/11/27 11:38:20;;;;;;;15.52;9.52;;;;;;;;;;5055422;28;20041;-76
2021/11/27 11:40:46;;;;;;;13.63;8.40;;;;;;;;;;5055810;28;20029;-76
2021/11/27 11:43:14;;;;;;;13.80;8.68;;;;;;;;;;5055444;28;20037;-77
2021/11/27 11:45:41;;;;;;;13.10;8.88;;;;;;;;;;5055743;28;20029;-76
2021/11/27 11:48:18;;;;;;;11.77;7.72;;;;;;;;;;5055649;28;20037;-77
2021/11/27 11:51:06;;;;;;;11.93;8.95;;;;;;;;;;5038286;28;20044;-77
2021/11/27 11:53:38;;;;;;;11.23;7.75;;;;;;;;;;5055679;28;20117;-76
2021/11/27 11:56:05;;;;;;;10.65;7.47;;;;;;;;;;5037979;28;20064;-77
2021/11/27 11:58:47;;;;;;;11.40;7.95;;;;;;;;;;5055529;28;20028;-78
2021/11/27 12:01:14;;;;;;;11.18;7.75;;;;;;;;;;5055556;28;20084;-79
2021/11/27 12:03:43;;;;;;;11.13;7.22;;;;;;;;;;5055678;28;20040;-79
2021/11/27 12:06:09;;;;;;;10.23;7.65;;;;;;;;;;5055266;28;20116;-78
2021/11/27 12:08:51;;;;;;;13.02;8.95;;;;;;;;;;5055314;28;20171;-79
2021/11/27 12:11:41;;;;;;;11.82;8.38;;;;;;;;;;5055158;28;20039;-79
2021/11/27 12:14:22;;;;;;;11.40;8.07;;;;;;;;;;5055051;28;20131;-79
2021/11/27 12:17:06;;;;;;;10.38;7.65;;;;;;;;;;5055253;28;20048;-82
2021/11/27 12:19:57;;;;;;;13.35;8.43;;;;;;;;;;5037001;28;20444;-82
2021/11/27 12:22:31;;;;;;;10.35;7.95;;;;;;;;;;5055209;28;20071;-82
2021/11/27 12:25:04;;;;;;;10.40;7.60;;;;;;;;;;5054866;28;20381;-82
2021/11/27 12:27:33;;;;;;;10.23;7.45;;;;;;;;;;5054929;28;20497;-82
2021/11/27 12:30:12;;;;;;;11.30;7.35;;;;;;;;;;5054999;28;20112;-81
2021/11/27 12:32:39;;;;;;;9.32;7.07;;;;;;;;;;5054836;28;20374;-81
2021/11/27 12:35:28;;;;;;;9.52;7.13;;;;;;;;;;5054830;28;20146;-81
2021/11/27 12:37:56;;;;;;;11.55;8.02;;;;;;;;;;5054767;28;20041;-81
2021/11/27 12:40:36;;;;;;;13.23;8.82;;;;;;;;;;5054779;28;20424;-81
2021/11/27 12:43:30;;;;;;;14.73;9.10;;;;;;;;;;5036697;28;20409;-81
2021/11/27 12:45:59;;;;;;;11.85;8.20;;;;;;;;;;5054727;28;20044;-74
2021/11/27 12:48:31;;;;;;;13.60;9.02;;;;;;;;;;5053168;28;20029;-78
2021/11/27 12:51:24;;;;;;;13.68;9.60;;;;;;;;;;5054599;28;20377;-78
2021/11/27 12:54:03;;;;;;;13.48;9.40;;;;;;;;;;5053705;28;20083;-79
2021/11/27 12:56:43;;;;;;;12.40;8.07;;;;;;;;;;5054708;28;20086;-78
2021/11/27 12:59:16;;;;;;;13.10;9.23;;;;;;;;;;5054949;28;20056;-78
2021/11/27 13:01:43;;;;;;;12.40;8.63;;;;;;;;;;5054404;28;20123;-78
2021/11/27 13:04:10;;;;;;;11.23;7.00;;;;;;;;;;5054317;28;20033;-77
2021/11/27 13:06:38;;;;;;;11.43;7.20;;;;;;;;;;5054324;28;20045;-78
2021/11/27 13:09:14;;;;;;;10.88;6.70;;;;;;;;;;5054559;28;20036;-78
2021/11/27 13:11:44;;;;;;;11.48;7.00;;;;;;;;;;5054689;28;20124;-78
2021/11/27 13:14:29;;;;;;;8.55;5.40;;;;;;;;;;5054325;28;20397;-78
2021/11/27 13:17:03;;;;;;;7.55;6.35;;;;;;;;;;5036273;28;20140;-78
2021/11/27 13:19:30;;;;;;;7.30;6.13;;;;;;;;;;5054908;28;20033;-78
2021/11/27 13:22:05;;;;;;;9.50;6.38;;;;;;;;;;5054372;28;20453;-78
2021/11/27 13:24:36;;;;;;;10.18;6.85;;;;;;;;;;5053747;28;20477;-75
2021/11/27 13:27:03;;;;;;;9.55;6.45;;;;;;;;;;5053599;28;20128;-76
2021/11/27 13:29:28;;;;;;;9.90;6.57;;;;;;;;;;5054233;28;20085;-73
2021/11/27 13:31:54;;;;;;;10.63;7.03;;;;;;;;;;5053790;28;20068;-75
2021/11/27 13:34:19;;;;;;;8.25;6.10;;;;;;;;;;5053843;28;20097;-77
2021/11/27 13:36:49;;;;;;;12.48;7.38;;;;;;;;;;5036002;28;20071;-76
2021/11/27 13:39:21;;;;;;;20.15;11.82;;;;;;;;;;5053737;28;20474;-76
2021/11/27 13:42:02;;;;;;;14.07;9.23;;;;;;;;;;5053636;28;20465;-76
2021/11/27 13:44:37;;;;;;;15.63;9.27;;;;;;;;;;5053935;28;20043;-75
2021/11/27 13:47:05;;;;;;;16.05;10.02;;;;;;;;;;5035776;28;20068;-76
2021/11/27 13:49:41;;;;;;;13.10;8.27;;;;;;;;;;5053900;28;20024;-75
2021/11/27 13:52:08;;;;;;;15.77;9.50;;;;;;;;;;5053830;28;20029;-75
2021/11/27 13:54:34;;;;;;;16.23;9.55;;;;;;;;;;5053130;28;20025;-75
2021/11/27 13:57:02;;;;;;;25.42;12.65;;;;;;;;;;5053222;28;20696;-77
2021/11/27 13:59:30;;;;;;;17.27;9.38;;;;;;;;;;5035396;28;20493;-75
2021/11/27 14:02:03;;;;;;;19.30;12.90;;;;;;;;;;5053200;28;20542;-75
2021/11/27 14:04:29;;;;;;;19.83;11.25;;;;;;;;;;5052653;28;20029;-75
2021/11/27 14:06:56;;;;;;;19.67;11.32;;;;;;;;;;5053482;28;20032;-75
2021/11/27 14:09:22;;;;;;;16.20;10.32;;;;;;;;;;5053527;28;20037;-75
2021/11/27 14:11:48;;;;;;;14.73;9.02;;;;;;;;;;5053236;28;20041;-77
2021/11/27 14:14:13;;;;;;;14.23;8.43;;;;;;;;;;5035361;28;20052;-77
2021/11/27 14:16:43;;;;;;;18.63;9.40;;;;;;;;;;5053119;28;20041;-77
2021/11/27 14:19:23;;;;;;;21.48;11.48;;;;;;;;;;5053014;28;20055;-77
2021/11/27 14:22:04;;;;;;;37.63;17.15;;;;;;;;;;5053404;28;20079;-77
2021/11/27 14:24:30;;;;;;;40.85;17.65;;;;;;;;;;5052638;28;20455;-77
2021/11/27 14:27:02;;;;;;;46.20;18.35;;;;;;;;;;5052693;28;20128;-77
2021/11/27 14:29:28;;;;;;;23.40;11.80;;;;;;;;;;5052741;28;20508;-77
2021/11/27 14:31:53;;;;;;;12.70;8.45;;;;;;;;;;5052763;28;20033;-77
2021/11/27 14:34:19;;;;;;;16.33;9.32;;;;;;;;;;5052703;28;20083;-77
2021/11/27 14:36:53;;;;;;;14.13;9.20;;;;;;;;;;5052649;28;20037;-77
2021/11/27 14:39:21;;;;;;;23.80;13.23;;;;;;;;;;5052515;28;20563;-77